Time;durP1;ratioP1;P1;durP2;ratioP2;P2;SDS_P1;SDS_P2;PMS_P1;PMS_P2;Temp;Humidity;BMP_temperature;BMP_pressure;BME280_temperature;BME280_humidity;BME280_pressure;Samples;Min_cycle;Max_cycle;Signal;HPM_P1;HPM_P2
2022/01/13 00:07:44;;;;;;;20.57;12.47;;;3.90;88.40;;;;;;20830044;28;20232;-69
2022/01/13 00:27:55;;;;;;;20.97;12.47;;;4.20;88.80;;;;;;20829815;28;20236;-69
2022/01/13 00:37:56;;;;;;;24.23;12.87;;;4.20;88.10;;;;;;20830067;28;20204;-69
2022/01/13 00:47:58;;;;;;;20.07;12.43;;;4.30;88.90;;;;;;20829269;28;20232;-69
2022/01/13 00:58:00;;;;;;;19.73;12.70;;;4.40;89.00;;;;;;20828947;28;20235;-68
2022/01/13 01:08:04;;;;;;;23.00;12.90;;;4.50;89.00;;;;;;20828774;28;20232;-68
2022/01/13 01:18:17;;;;;;;18.67;12.40;;;4.50;89.60;;;;;;20827508;28;20228;-69
2022/01/13 01:28:27;;;;;;;20.20;12.43;;;4.60;89.80;;;;;;20838299;28;20644;-70
2022/01/13 01:38:29;;;;;;;19.87;12.30;;;4.50;89.70;;;;;;20843459;28;20219;-69
2022/01/13 01:48:34;;;;;;;20.10;12.37;;;4.40;90.00;;;;;;20840347;28;20263;-69
2022/01/13 01:58:38;;;;;;;19.47;12.67;;;4.40;90.40;;;;;;20841064;28;20213;-67
2022/01/13 02:08:40;;;;;;;21.03;11.83;;;4.40;90.60;;;;;;20839276;28;20754;-69
2022/01/13 02:18:41;;;;;;;22.70;13.20;;;4.70;90.40;;;;;;20838955;28;20248;-70
2022/01/13 02:28:44;;;;;;;22.40;12.53;;;4.70;90.50;;;;;;20838294;28;20699;-68
2022/01/13 02:38:50;;;;;;;18.53;12.07;;;4.80;90.60;;;;;;20836504;28;20208;-69
2022/01/13 02:48:52;;;;;;;20.50;12.50;;;4.90;90.60;;;;;;20836693;28;20213;-69
2022/01/13 02:58:53;;;;;;;20.87;12.03;;;4.80;90.60;;;;;;20850700;28;20619;-69
2022/01/13 03:08:55;;;;;;;22.60;12.97;;;4.80;90.70;;;;;;20846502;28;20243;-69
2022/01/13 03:18:57;;;;;;;18.67;12.10;;;4.90;90.80;;;;;;20833861;28;20237;-68
2022/01/13 03:29:15;;;;;;;21.07;12.37;;;4.90;91.10;;;;;;20830973;28;20216;-68
2022/01/13 03:39:17;;;;;;;19.43;11.00;;;5.00;91.10;;;;;;20833377;28;20221;-69
2022/01/13 03:49:20;;;;;;;12.17;8.17;;;4.90;90.80;;;;;;20831527;28;20656;-69
2022/01/13 03:59:28;;;;;;;12.33;7.73;;;5.00;90.90;;;;;;20831295;28;20233;-68
2022/01/13 04:09:50;;;;;;;16.63;9.37;;;5.00;90.70;;;;;;20831302;28;20267;-69
2022/01/13 04:19:54;;;;;;;13.60;9.53;;;5.00;90.70;;;;;;20830050;28;20236;-70
2022/01/13 04:30:33;;;;;;;17.23;9.97;;;5.00;91.00;;;;;;20829877;28;20219;-69
2022/01/13 04:40:35;;;;;;;11.90;8.80;;;4.80;90.70;;;;;;20829712;28;20268;-70
2022/01/13 04:50:37;;;;;;;11.00;7.40;;;4.80;90.60;;;;;;20829088;28;20204;-70
2022/01/13 05:00:39;;;;;;;10.43;7.40;;;4.90;90.40;;;;;;20839020;28;20571;-68
2022/01/13 05:10:40;;;;;;;11.23;7.93;;;4.90;90.40;;;;;;20844446;28;20540;-69
2022/01/13 05:20:48;;;;;;;13.97;8.60;;;4.90;90.40;;;;;;20843263;28;20288;-68
2022/01/13 05:30:51;;;;;;;10.83;7.67;;;4.90;90.20;;;;;;20840595;28;20208;-69
2022/01/13 05:40:53;;;;;;;11.17;7.23;;;4.80;90.10;;;;;;20841623;28;20865;-70
2022/01/13 05:50:55;;;;;;;17.03;8.87;;;4.80;90.20;;;;;;20839622;28;20209;-70
2022/01/13 06:00:57;;;;;;;18.03;8.60;;;4.70;90.00;;;;;;20840140;28;20232;-70
2022/01/13 06:10:59;;;;;;;12.57;8.33;;;4.80;90.10;;;;;;20838731;28;20267;-71
2022/01/13 06:21:01;;;;;;;13.03;8.47;;;4.70;90.00;;;;;;20838651;28;20249;-72
2022/01/13 06:31:06;;;;;;;14.53;9.80;;;4.70;90.00;;;;;;20836750;28;20208;-72
2022/01/13 06:41:08;;;;;;;14.37;9.47;;;4.70;90.00;;;;;;20835517;28;20263;-73
2022/01/13 06:51:10;;;;;;;16.40;10.13;;;4.60;90.00;;;;;;20836114;28;20209;-72
2022/01/13 07:01:11;;;;;;;15.13;10.13;;;4.60;90.10;;;;;;20834435;28;20236;-70
2022/01/13 07:11:14;;;;;;;12.83;8.53;;;4.70;89.50;;;;;;20832188;28;20711;-72
2022/01/13 07:21:20;;;;;;;11.53;7.60;;;4.80;89.50;;;;;;20833292;28;20236;-71
2022/01/13 07:31:22;;;;;;;12.13;7.80;;;4.70;89.20;;;;;;20829752;28;20204;-72
2022/01/13 07:41:24;;;;;;;12.03;7.90;;;4.60;89.10;;;;;;20832071;28;20282;-72
2022/01/13 07:51:26;;;;;;;9.67;7.00;;;4.60;89.60;;;;;;20834455;28;20211;-73
2022/01/13 08:01:28;;;;;;;10.40;6.87;;;4.60;90.00;;;;;;20831563;28;20647;-72
2022/01/13 08:11:30;;;;;;;11.10;6.77;;;4.60;89.20;;;;;;20829318;28;20722;-72
2022/01/13 08:21:31;;;;;;;11.43;6.87;;;4.70;89.30;;;;;;20829768;28;20641;-72
2022/01/13 08:31:33;;;;;;;10.90;6.93;;;4.70;88.70;;;;;;20829532;28;20216;-72
2022/01/13 08:41:35;;;;;;;13.17;7.47;;;4.60;89.00;;;;;;20829199;28;20718;-72
2022/01/13 08:51:37;;;;;;;12.30;8.00;;;4.60;89.60;;;;;;20829561;28;20221;-73
2022/01/13 09:01:39;;;;;;;11.27;8.17;;;4.70;88.30;;;;;;20828449;28;20801;-72
2022/01/13 09:11:44;;;;;;;14.00;8.10;;;4.50;88.80;;;;;;20827423;28;20235;-71
2022/01/13 09:21:48;;;;;;;14.17;8.97;;;4.50;89.50;;;;;;20839320;28;20248;-72
2022/01/13 09:31:50;;;;;;;13.07;8.73;;;4.80;89.40;;;;;;20905914;28;20296;-72
2022/01/13 09:41:53;;;;;;;19.80;9.30;;;4.80;89.20;;;;;;20909429;28;20247;-71
2022/01/13 09:51:54;;;;;;;16.67;9.87;;;4.80;89.70;;;;;;20923440;28;20669;-72
2022/01/13 10:01:57;;;;;;;13.67;9.40;;;;;;;;;;20921779;28;20293;-73
2022/01/13 10:11:58;;;;;;;18.37;10.93;;;5.20;88.50;;;;;;20921330;28;20266;-71
2022/01/13 10:22:07;;;;;;;13.60;9.60;;;5.10;88.20;;;;;;20920664;28;20642;-73
2022/01/13 10:32:15;;;;;;;18.93;11.60;;;5.00;88.00;;;;;;20919320;28;20216;-72
2022/01/13 10:52:39;;;;;;;18.00;11.47;;;5.00;88.90;;;;;;20917839;28;20277;-70
2022/01/13 11:02:41;;;;;;;15.60;10.30;;;5.20;88.30;;;;;;20917299;28;20229;-71
2022/01/13 11:12:44;;;;;;;16.20;10.63;;;5.40;88.30;;;;;;20916481;28;20250;-72
2022/01/13 11:22:48;;;;;;;17.83;11.87;;;5.50;88.90;;;;;;20899342;28;20249;-72
2022/01/13 11:32:50;;;;;;;21.10;10.73;;;5.90;88.50;;;;;;20831441;28;20256;-72
2022/01/13 11:42:56;;;;;;;19.03;11.33;;;6.30;87.40;;;;;;20832533;28;20638;-72
2022/01/13 11:52:58;;;;;;;20.00;12.60;;;6.40;87.80;;;;;;20832450;28;20217;-72
2022/01/13 12:03:00;;;;;;;17.70;11.77;;;6.40;86.90;;;;;;20830968;28;20237;-70
2022/01/13 12:13:38;;;;;;;18.13;12.40;;;6.50;86.70;;;;;;20829918;28;20213;-72
2022/01/13 12:30:02;;;;;;;19.53;12.77;;;6.60;85.40;;;;;;20989680;28;20653;-72
2022/01/13 12:40:15;;;;;;;19.50;12.70;;;7.00;85.30;;;;;;20983899;28;20210;-71
2022/01/13 12:50:32;;;;;;;20.83;13.20;;;7.20;84.80;;;;;;20983829;28;20224;-72
2022/01/13 13:00:35;;;;;;;28.10;13.17;;;7.20;84.60;;;;;;20980607;28;20226;-71
2022/01/13 13:10:40;;;;;;;22.00;12.77;;;7.20;84.20;;;;;;20981245;28;20213;-75
2022/01/13 13:20:42;;;;;;;22.70;14.13;;;7.20;84.80;;;;;;20978931;28;20229;-73
2022/01/13 13:31:04;;;;;;;20.57;13.23;;;7.40;83.80;;;;;;20898781;28;20276;-74
2022/01/13 13:41:29;;;;;;;19.93;14.00;;;7.30;83.50;;;;;;20840668;28;20258;-70
2022/01/13 13:51:57;;;;;;;20.20;12.87;;;7.30;83.50;;;;;;20839863;28;20207;-74
2022/01/13 14:02:20;;;;;;;18.83;13.30;;;7.40;83.70;;;;;;20839120;28;20560;-75
2022/01/13 14:12:30;;;;;;;19.63;13.17;;;7.30;83.50;;;;;;20836919;28;20294;-73
2022/01/13 14:22:32;;;;;;;16.47;12.20;;;7.30;84.30;;;;;;20837428;28;20245;-74
2022/01/13 14:32:34;;;;;;;20.87;12.93;;;7.30;84.00;;;;;;20836548;28;20211;-70
2022/01/13 14:42:37;;;;;;;25.00;13.90;;;7.30;84.60;;;;;;20835592;28;20235;-72
2022/01/13 14:52:39;;;;;;;24.07;14.10;;;7.10;84.80;;;;;;20834710;28;20214;-75
2022/01/13 15:02:47;;;;;;;18.77;13.17;;;6.90;85.40;;;;;;20834614;28;20281;-71
2022/01/13 15:12:49;;;;;;;19.50;13.87;;;6.80;85.80;;;;;;20833565;28;20210;-69
2022/01/13 15:22:51;;;;;;;26.53;15.00;;;6.50;86.40;;;;;;20831825;28;20284;-71
2022/01/13 15:32:53;;;;;;;24.07;15.10;;;6.50;86.60;;;;;;20869708;28;20614;-70
2022/01/13 15:42:55;;;;;;;23.80;15.70;;;6.20;87.20;;;;;;20960625;28;20718;-70
2022/01/13 15:52:58;;;;;;;22.83;14.93;;;6.20;87.90;;;;;;20946917;28;20263;-70
2022/01/13 16:03:00;;;;;;;24.60;15.30;;;6.00;88.00;;;;;;20913985;28;20228;-76
2022/01/13 16:13:02;;;;;;;27.33;16.03;;;5.70;89.10;;;;;;20989520;28;20269;-75
2022/01/13 16:23:04;;;;;;;28.13;16.50;;;5.50;89.50;;;;;;20995218;28;20584;-72
2022/01/13 16:33:06;;;;;;;33.53;18.37;;;5.50;90.00;;;;;;20995828;28;20211;-71
2022/01/13 16:43:09;;;;;;;30.47;18.87;;;5.40;90.20;;;;;;20851293;28;20262;-71
2022/01/13 16:53:11;;;;;;;28.30;18.03;;;5.20;90.40;;;;;;20829067;28;20213;-74
2022/01/13 17:03:13;;;;;;;26.30;17.60;;;5.20;90.60;;;;;;20830414;28;20247;-75
2022/01/13 17:13:18;;;;;;;24.80;17.57;;;5.10;90.60;;;;;;20837945;28;20691;-69
2022/01/13 17:23:20;;;;;;;27.83;17.03;;;4.90;90.80;;;;;;20842174;28;21107;-70
2022/01/13 17:33:22;;;;;;;31.07;17.57;;;4.90;91.00;;;;;;20838639;28;20572;-74
2022/01/13 17:43:23;;;;;;;34.03;19.10;;;4.90;90.90;;;;;;20841268;28;20240;-72
2022/01/13 17:53:25;;;;;;;32.93;19.43;;;4.90;91.20;;;;;;20840759;28;20614;-72
2022/01/13 18:03:29;;;;;;;33.77;20.20;;;4.90;91.00;;;;;;20839859;28;20232;-73
2022/01/13 18:13:32;;;;;;;33.97;20.80;;;4.60;91.10;;;;;;20839444;28;20213;-71
2022/01/13 18:23:34;;;;;;;33.77;20.83;;;4.50;91.00;;;;;;20837965;28;20712;-69
2022/01/13 18:33:36;;;;;;;33.23;21.30;;;4.50;91.20;;;;;;20837943;28;20664;-69
2022/01/13 18:43:38;;;;;;;37.97;19.87;;;4.50;91.30;;;;;;20836727;28;20232;-67
2022/01/13 18:53:40;;;;;;;34.80;20.23;;;4.40;91.30;;;;;;20836016;28;20212;-67
2022/01/13 19:03:41;;;;;;;32.03;20.10;;;4.30;91.20;;;;;;20833705;28;20268;-68
2022/01/13 19:13:43;;;;;;;36.27;21.30;;;4.20;91.30;;;;;;20833880;28;20630;-66
2022/01/13 19:23:47;;;;;;;37.67;21.33;;;4.10;91.50;;;;;;20833022;28;20247;-64
2022/01/13 19:33:51;;;;;;;38.00;23.37;;;4.10;91.40;;;;;;20920666;28;20204;-67
2022/01/13 19:43:55;;;;;;;42.80;24.37;;;3.90;91.50;;;;;;20911609;28;20223;-66
2022/01/13 19:53:56;;;;;;;35.93;22.20;;;4.00;91.60;;;;;;20830850;28;20208;-66
2022/01/13 20:06:51;;;;;;;36.07;21.33;;;4.00;91.50;;;;;;21067988;27;20574;-66
2022/01/13 20:16:53;;;;;;;37.93;22.30;;;3.90;91.50;;;;;;21065112;28;20198;-66
2022/01/13 20:26:55;;;;;;;33.27;20.00;;;3.80;91.50;;;;;;21062828;28;20207;-65
2022/01/13 20:36:57;;;;;;;40.53;22.63;;;3.50;91.70;;;;;;21065460;28;20207;-63
2022/01/13 20:46:58;;;;;;;39.17;22.13;;;3.30;91.80;;;;;;21064401;28;20214;-65
2022/01/13 20:57:00;;;;;;;39.93;22.10;;;3.30;92.30;;;;;;21068533;28;20249;-62
2022/01/13 21:07:02;;;;;;;37.05;27.75;;;3.30;92.60;;;;;;21103586;28;20432;-64
2022/01/13 21:17:04;;;;;;;40.87;22.53;;;3.70;92.20;;;;;;21143221;28;20252;-64
2022/01/13 21:27:06;;;;;;;46.20;23.40;;;3.60;92.10;;;;;;21106182;28;20263;-65
2022/01/13 21:37:07;;;;;;;41.57;22.53;;;3.60;92.00;;;;;;21075539;28;20210;-65
2022/01/13 21:47:09;;;;;;;41.87;23.67;;;;;;;;;;21102195;28;20210;-69
2022/01/13 21:57:12;;;;;;;36.60;21.57;;;3.20;91.80;;;;;;21087363;28;20236;-65
2022/01/13 22:07:17;;;;;;;44.23;22.80;;;3.20;92.00;;;;;;21134648;28;20206;-65
2022/01/13 22:17:21;;;;;;;37.83;21.77;;;3.20;92.00;;;;;;21169316;28;20221;-65
2022/01/13 22:27:23;;;;;;;43.83;23.23;;;3.10;92.20;;;;;;21105245;28;20294;-64
2022/01/13 22:37:25;;;;;;;39.63;21.67;;;3.10;92.10;;;;;;21083784;28;20226;-63
2022/01/13 22:47:27;;;;;;;41.50;23.27;;;3.00;92.10;;;;;;21062011;28;20227;-65
2022/01/13 22:57:29;;;;;;;45.43;21.43;;;2.90;92.00;;;;;;21087519;28;20230;-64
2022/01/13 23:07:31;;;;;;;39.20;20.53;;;2.80;92.10;;;;;;21088331;28;20252;-64
2022/01/13 23:27:55;;;;;;;34.97;20.27;;;2.90;92.30;;;;;;21077744;28;20729;-68
2022/01/13 23:37:57;;;;;;;39.40;22.53;;;3.10;92.20;;;;;;21079548;28;20226;-66
2022/01/13 23:47:59;;;;;;;57.80;26.17;;;3.10;92.50;;;;;;21079509;28;20207;-66
2022/01/13 23:58:00;;;;;;;50.60;24.77;;;2.80;92.80;;;;;;21078398;28;20238;-63
